sensor_id;sensor_type;location;lat;lon;timestamp;P1;durP1;ratioP1;P2;durP2;ratioP2
69769;SDS011;57282;52.514;13.458;2022-11-12T00:00:46;20.88;;;8.02;;
69769;SDS011;57282;52.514;13.458;2022-11-12T00:03:14;16.13;;;8.32;;
69769;SDS011;57282;52.514;13.458;2022-11-12T00:05:43;21.80;;;8.45;;
69769;SDS011;57282;52.514;13.458;2022-11-12T00:08:12;18.10;;;7.40;;
69769;SDS011;57282;52.514;13.458;2022-11-12T00:10:39;19.08;;;7.03;;
69769;SDS011;57282;52.514;13.458;2022-11-12T00:13:05;17.38;;;6.03;;
69769;SDS011;57282;52.514;13.458;2022-11-12T00:15:32;11.65;;;6.25;;
69769;SDS011;57282;52.514;13.458;2022-11-12T00:17:58;16.10;;;5.60;;
69769;SDS011;57282;52.514;13.458;2022-11-12T00:20:25;13.70;;;4.73;;
69769;SDS011;57282;52.514;13.458;2022-11-12T00:22:53;19.95;;;5.55;;
69769;SDS011;57282;52.514;13.458;2022-11-12T00:25:20;12.52;;;5.10;;
69769;SDS011;57282;52.514;13.458;2022-11-12T00:27:47;13.48;;;5.25;;
69769;SDS011;57282;52.514;13.458;2022-11-12T00:30:13;11.38;;;5.20;;
69769;SDS011;57282;52.514;13.458;2022-11-12T00:32:41;12.27;;;5.30;;
69769;SDS011;57282;52.514;13.458;2022-11-12T00:35:08;13.55;;;7.40;;
69769;SDS011;57282;52.514;13.458;2022-11-12T00:37:36;16.23;;;7.20;;
69769;SDS011;57282;52.514;13.458;2022-11-12T00:40:05;13.05;;;5.60;;
69769;SDS011;57282;52.514;13.458;2022-11-12T00:42:34;10.35;;;4.90;;
69769;SDS011;57282;52.514;13.458;2022-11-12T00:45:03;10.47;;;4.60;;
69769;SDS011;57282;52.514;13.458;2022-11-12T00:47:33;12.27;;;5.65;;
69769;SDS011;57282;52.514;13.458;2022-11-12T00:50:00;11.48;;;5.13;;
69769;SDS011;57282;52.514;13.458;2022-11-12T00:52:26;11.70;;;5.38;;
69769;SDS011;57282;52.514;13.458;2022-11-12T00:54:53;13.50;;;4.97;;
69769;SDS011;57282;52.514;13.458;2022-11-12T00:57:21;11.40;;;5.73;;
69769;SDS011;57282;52.514;13.458;2022-11-12T00:59:48;11.48;;;5.28;;
69769;SDS011;57282;52.514;13.458;2022-11-12T01:02:17;12.32;;;4.60;;
69769;SDS011;57282;52.514;13.458;2022-11-12T01:04:44;13.23;;;5.28;;
69769;SDS011;57282;52.514;13.458;2022-11-12T01:07:11;11.50;;;4.80;;
69769;SDS011;57282;52.514;13.458;2022-11-12T01:09:39;13.57;;;5.50;;
69769;SDS011;57282;52.514;13.458;2022-11-12T01:12:06;11.80;;;4.50;;
69769;SDS011;57282;52.514;13.458;2022-11-12T01:14:35;13.75;;;6.13;;
69769;SDS011;57282;52.514;13.458;2022-11-12T01:17:01;13.57;;;6.60;;
69769;SDS011;57282;52.514;13.458;2022-11-12T01:19:28;14.10;;;6.30;;
69769;SDS011;57282;52.514;13.458;2022-11-12T01:21:55;11.77;;;5.27;;
69769;SDS011;57282;52.514;13.458;2022-11-12T01:24:21;18.58;;;7.10;;
69769;SDS011;57282;52.514;13.458;2022-11-12T01:26:48;16.27;;;7.97;;
69769;SDS011;57282;52.514;13.458;2022-11-12T01:29:16;21.85;;;10.23;;
69769;SDS011;57282;52.514;13.458;2022-11-12T01:31:44;26.17;;;14.15;;
69769;SDS011;57282;52.514;13.458;2022-11-12T01:34:11;16.57;;;8.37;;
69769;SDS011;57282;52.514;13.458;2022-11-12T01:36:38;22.75;;;8.98;;
69769;SDS011;57282;52.514;13.458;2022-11-12T01:39:05;17.00;;;8.20;;
69769;SDS011;57282;52.514;13.458;2022-11-12T01:41:35;15.57;;;7.45;;
69769;SDS011;57282;52.514;13.458;2022-11-12T01:44:05;14.48;;;7.13;;
69769;SDS011;57282;52.514;13.458;2022-11-12T01:46:34;14.13;;;6.43;;
69769;SDS011;57282;52.514;13.458;2022-11-12T01:49:13;13.13;;;6.10;;
69769;SDS011;57282;52.514;13.458;2022-11-12T01:51:48;13.23;;;6.07;;
69769;SDS011;57282;52.514;13.458;2022-11-12T01:54:20;13.80;;;6.35;;
69769;SDS011;57282;52.514;13.458;2022-11-12T01:56:48;16.73;;;5.97;;
69769;SDS011;57282;52.514;13.458;2022-11-12T01:59:18;12.67;;;5.13;;
69769;SDS011;57282;52.514;13.458;2022-11-12T02:01:54;11.55;;;5.05;;
69769;SDS011;57282;52.514;13.458;2022-11-12T02:04:23;13.90;;;5.82;;
69769;SDS011;57282;52.514;13.458;2022-11-12T02:06:51;13.90;;;6.00;;
69769;SDS011;57282;52.514;13.458;2022-11-12T02:09:21;13.88;;;5.97;;
69769;SDS011;57282;52.514;13.458;2022-11-12T02:11:47;13.87;;;5.63;;
69769;SDS011;57282;52.514;13.458;2022-11-12T02:14:14;12.93;;;5.88;;
69769;SDS011;57282;52.514;13.458;2022-11-12T02:16:40;10.50;;;5.28;;
69769;SDS011;57282;52.514;13.458;2022-11-12T02:19:11;10.65;;;4.78;;
69769;SDS011;57282;52.514;13.458;2022-11-12T02:21:43;17.77;;;7.57;;
69769;SDS011;57282;52.514;13.458;2022-11-12T02:26:59;14.15;;;5.57;;
69769;SDS011;57282;52.514;13.458;2022-11-12T02:29:26;13.30;;;5.45;;
69769;SDS011;57282;52.514;13.458;2022-11-12T02:31:53;18.08;;;5.75;;
69769;SDS011;57282;52.514;13.458;2022-11-12T02:34:21;10.60;;;4.90;;
69769;SDS011;57282;52.514;13.458;2022-11-12T02:36:49;9.48;;;3.35;;
69769;SDS011;57282;52.514;13.458;2022-11-12T02:39:17;8.75;;;3.67;;
69769;SDS011;57282;52.514;13.458;2022-11-12T02:41:44;15.02;;;3.13;;
69769;SDS011;57282;52.514;13.458;2022-11-12T02:44:10;6.55;;;2.65;;
69769;SDS011;57282;52.514;13.458;2022-11-12T02:46:37;6.50;;;2.67;;
69769;SDS011;57282;52.514;13.458;2022-11-12T02:49:04;7.53;;;2.45;;
69769;SDS011;57282;52.514;13.458;2022-11-12T02:51:30;8.23;;;3.15;;
69769;SDS011;57282;52.514;13.458;2022-11-12T02:53:58;8.85;;;2.75;;
69769;SDS011;57282;52.514;13.458;2022-11-12T02:56:25;9.13;;;3.67;;
69769;SDS011;57282;52.514;13.458;2022-11-12T02:58:51;8.90;;;2.77;;
69769;SDS011;57282;52.514;13.458;2022-11-12T03:01:18;9.32;;;2.60;;
69769;SDS011;57282;52.514;13.458;2022-11-12T03:03:45;7.70;;;2.55;;
69769;SDS011;57282;52.514;13.458;2022-11-12T03:06:12;7.70;;;3.38;;
69769;SDS011;57282;52.514;13.458;2022-11-12T03:08:38;7.25;;;2.67;;
69769;SDS011;57282;52.514;13.458;2022-11-12T03:11:07;8.63;;;3.10;;
69769;SDS011;57282;52.514;13.458;2022-11-12T03:13:36;8.00;;;2.80;;
69769;SDS011;57282;52.514;13.458;2022-11-12T03:16:03;8.05;;;2.70;;
69769;SDS011;57282;52.514;13.458;2022-11-12T03:18:30;7.65;;;2.88;;
69769;SDS011;57282;52.514;13.458;2022-11-12T03:20:57;9.45;;;3.28;;
69769;SDS011;57282;52.514;13.458;2022-11-12T03:23:24;6.40;;;2.77;;
69769;SDS011;57282;52.514;13.458;2022-11-12T03:25:52;6.85;;;2.80;;
69769;SDS011;57282;52.514;13.458;2022-11-12T03:28:20;9.35;;;2.60;;
69769;SDS011;57282;52.514;13.458;2022-11-12T03:30:46;6.50;;;2.60;;
69769;SDS011;57282;52.514;13.458;2022-11-12T03:33:14;5.90;;;2.78;;
69769;SDS011;57282;52.514;13.458;2022-11-12T03:35:41;8.77;;;2.53;;
69769;SDS011;57282;52.514;13.458;2022-11-12T03:38:08;5.53;;;1.80;;
69769;SDS011;57282;52.514;13.458;2022-11-12T03:40:34;6.93;;;3.00;;
69769;SDS011;57282;52.514;13.458;2022-11-12T03:43:07;17.25;;;3.25;;
69769;SDS011;57282;52.514;13.458;2022-11-12T03:45:35;9.23;;;3.72;;
69769;SDS011;57282;52.514;13.458;2022-11-12T03:48:02;6.73;;;3.20;;
69769;SDS011;57282;52.514;13.458;2022-11-12T03:50:29;10.30;;;3.47;;
69769;SDS011;57282;52.514;13.458;2022-11-12T03:52:56;8.07;;;3.22;;
69769;SDS011;57282;52.514;13.458;2022-11-12T03:55:25;9.23;;;4.15;;
69769;SDS011;57282;52.514;13.458;2022-11-12T03:57:55;8.55;;;3.47;;
69769;SDS011;57282;52.514;13.458;2022-11-12T04:00:23;9.30;;;3.60;;
69769;SDS011;57282;52.514;13.458;2022-11-12T04:02:54;9.13;;;3.90;;
69769;SDS011;57282;52.514;13.458;2022-11-12T04:05:22;10.93;;;3.72;;
69769;SDS011;57282;52.514;13.458;2022-11-12T04:08:08;10.15;;;3.90;;
69769;SDS011;57282;52.514;13.458;2022-11-12T04:10:56;8.73;;;3.15;;
69769;SDS011;57282;52.514;13.458;2022-11-12T04:13:23;10.80;;;3.50;;
69769;SDS011;57282;52.514;13.458;2022-11-12T04:15:58;8.98;;;3.88;;
69769;SDS011;57282;52.514;13.458;2022-11-12T04:18:47;9.70;;;3.83;;
69769;SDS011;57282;52.514;13.458;2022-11-12T04:21:35;10.63;;;4.57;;
69769;SDS011;57282;52.514;13.458;2022-11-12T04:24:19;10.40;;;3.45;;
69769;SDS011;57282;52.514;13.458;2022-11-12T04:27:08;11.43;;;3.60;;
69769;SDS011;57282;52.514;13.458;2022-11-12T04:29:38;10.80;;;4.15;;
69769;SDS011;57282;52.514;13.458;2022-11-12T04:32:23;12.07;;;3.97;;
69769;SDS011;57282;52.514;13.458;2022-11-12T04:34:51;10.25;;;3.53;;
69769;SDS011;57282;52.514;13.458;2022-11-12T04:37:19;8.55;;;3.50;;
69769;SDS011;57282;52.514;13.458;2022-11-12T04:39:47;7.77;;;3.20;;
69769;SDS011;57282;52.514;13.458;2022-11-12T04:42:13;7.97;;;3.53;;
69769;SDS011;57282;52.514;13.458;2022-11-12T04:44:58;8.15;;;3.40;;
69769;SDS011;57282;52.514;13.458;2022-11-12T04:47:25;11.18;;;3.58;;
69769;SDS011;57282;52.514;13.458;2022-11-12T04:49:56;10.13;;;3.75;;
69769;SDS011;57282;52.514;13.458;2022-11-12T04:52:23;14.23;;;3.03;;
69769;SDS011;57282;52.514;13.458;2022-11-12T04:54:50;8.90;;;3.13;;
69769;SDS011;57282;52.514;13.458;2022-11-12T04:57:17;6.63;;;3.47;;
69769;SDS011;57282;52.514;13.458;2022-11-12T04:59:46;9.20;;;3.30;;
69769;SDS011;57282;52.514;13.458;2022-11-12T05:02:13;8.00;;;3.15;;
69769;SDS011;57282;52.514;13.458;2022-11-12T05:04:40;6.67;;;2.60;;
69769;SDS011;57282;52.514;13.458;2022-11-12T05:07:08;6.85;;;3.22;;
69769;SDS011;57282;52.514;13.458;2022-11-12T05:09:36;8.50;;;3.47;;
69769;SDS011;57282;52.514;13.458;2022-11-12T05:12:03;8.43;;;3.70;;
69769;SDS011;57282;52.514;13.458;2022-11-12T05:14:30;8.27;;;3.63;;
69769;SDS011;57282;52.514;13.458;2022-11-12T05:16:57;6.07;;;2.80;;
69769;SDS011;57282;52.514;13.458;2022-11-12T05:19:24;6.80;;;2.90;;
69769;SDS011;57282;52.514;13.458;2022-11-12T05:21:51;8.82;;;3.55;;
69769;SDS011;57282;52.514;13.458;2022-11-12T05:24:31;8.30;;;3.08;;
69769;SDS011;57282;52.514;13.458;2022-11-12T05:27:00;10.73;;;3.30;;
69769;SDS011;57282;52.514;13.458;2022-11-12T05:29:27;7.43;;;2.93;;
69769;SDS011;57282;52.514;13.458;2022-11-12T05:31:54;7.75;;;3.55;;
69769;SDS011;57282;52.514;13.458;2022-11-12T05:34:24;10.60;;;3.53;;
69769;SDS011;57282;52.514;13.458;2022-11-12T05:36:51;7.53;;;3.35;;
69769;SDS011;57282;52.514;13.458;2022-11-12T05:39:17;7.68;;;3.00;;
69769;SDS011;57282;52.514;13.458;2022-11-12T05:41:46;6.80;;;3.03;;
69769;SDS011;57282;52.514;13.458;2022-11-12T05:44:13;8.45;;;3.85;;
69769;SDS011;57282;52.514;13.458;2022-11-12T05:46:40;8.85;;;3.60;;
69769;SDS011;57282;52.514;13.458;2022-11-12T05:49:07;9.23;;;3.33;;
69769;SDS011;57282;52.514;13.458;2022-11-12T05:51:33;10.20;;;4.47;;
69769;SDS011;57282;52.514;13.458;2022-11-12T05:54:00;7.10;;;3.13;;
69769;SDS011;57282;52.514;13.458;2022-11-12T05:56:27;8.77;;;3.75;;
69769;SDS011;57282;52.514;13.458;2022-11-12T05:58:55;9.60;;;3.75;;
69769;SDS011;57282;52.514;13.458;2022-11-12T06:01:22;7.95;;;3.50;;
69769;SDS011;57282;52.514;13.458;2022-11-12T06:03:49;8.95;;;3.13;;
69769;SDS011;57282;52.514;13.458;2022-11-12T06:06:16;10.63;;;3.10;;
69769;SDS011;57282;52.514;13.458;2022-11-12T06:08:42;10.23;;;3.95;;
69769;SDS011;57282;52.514;13.458;2022-11-12T06:11:09;9.63;;;3.88;;
69769;SDS011;57282;52.514;13.458;2022-11-12T06:13:36;6.45;;;2.95;;
69769;SDS011;57282;52.514;13.458;2022-11-12T06:16:04;10.48;;;3.40;;
69769;SDS011;57282;52.514;13.458;2022-11-12T06:18:31;9.90;;;4.13;;
69769;SDS011;57282;52.514;13.458;2022-11-12T06:21:01;10.90;;;4.15;;
69769;SDS011;57282;52.514;13.458;2022-11-12T06:23:46;11.85;;;4.30;;
69769;SDS011;57282;52.514;13.458;2022-11-12T06:26:17;9.35;;;3.63;;
69769;SDS011;57282;52.514;13.458;2022-11-12T06:28:45;9.38;;;4.22;;
69769;SDS011;57282;52.514;13.458;2022-11-12T06:31:14;9.73;;;3.73;;
69769;SDS011;57282;52.514;13.458;2022-11-12T06:33:42;8.90;;;4.05;;
69769;SDS011;57282;52.514;13.458;2022-11-12T06:36:10;10.30;;;4.60;;
69769;SDS011;57282;52.514;13.458;2022-11-12T06:38:40;15.68;;;4.25;;
69769;SDS011;57282;52.514;13.458;2022-11-12T06:41:07;8.90;;;3.75;;
69769;SDS011;57282;52.514;13.458;2022-11-12T06:43:36;8.47;;;3.87;;
69769;SDS011;57282;52.514;13.458;2022-11-12T06:46:04;9.95;;;4.13;;
69769;SDS011;57282;52.514;13.458;2022-11-12T06:48:35;9.60;;;4.88;;
69769;SDS011;57282;52.514;13.458;2022-11-12T06:51:06;8.45;;;3.65;;
69769;SDS011;57282;52.514;13.458;2022-11-12T06:53:34;9.13;;;4.00;;
69769;SDS011;57282;52.514;13.458;2022-11-12T06:56:01;11.90;;;4.40;;
69769;SDS011;57282;52.514;13.458;2022-11-12T06:58:30;10.07;;;4.07;;
69769;SDS011;57282;52.514;13.458;2022-11-12T07:01:02;8.48;;;3.83;;
69769;SDS011;57282;52.514;13.458;2022-11-12T07:03:36;9.73;;;4.35;;
69769;SDS011;57282;52.514;13.458;2022-11-12T07:06:04;11.25;;;4.70;;
69769;SDS011;57282;52.514;13.458;2022-11-12T07:08:33;15.57;;;4.80;;
69769;SDS011;57282;52.514;13.458;2022-11-12T07:11:00;8.88;;;3.88;;
69769;SDS011;57282;52.514;13.458;2022-11-12T07:13:28;13.65;;;4.75;;
69769;SDS011;57282;52.514;13.458;2022-11-12T07:15:56;10.60;;;4.28;;
69769;SDS011;57282;52.514;13.458;2022-11-12T07:18:30;11.00;;;4.40;;
69769;SDS011;57282;52.514;13.458;2022-11-12T07:21:00;13.23;;;4.23;;
69769;SDS011;57282;52.514;13.458;2022-11-12T07:23:29;12.75;;;5.47;;
69769;SDS011;57282;52.514;13.458;2022-11-12T07:25:58;10.50;;;4.57;;
69769;SDS011;57282;52.514;13.458;2022-11-12T07:28:28;9.25;;;4.50;;
69769;SDS011;57282;52.514;13.458;2022-11-12T07:30:56;14.25;;;5.03;;
69769;SDS011;57282;52.514;13.458;2022-11-12T07:33:24;11.03;;;4.40;;
69769;SDS011;57282;52.514;13.458;2022-11-12T07:35:56;11.63;;;4.70;;
69769;SDS011;57282;52.514;13.458;2022-11-12T07:38:26;9.63;;;4.72;;
69769;SDS011;57282;52.514;13.458;2022-11-12T07:40:58;9.32;;;4.70;;
69769;SDS011;57282;52.514;13.458;2022-11-12T07:43:26;12.73;;;5.35;;
69769;SDS011;57282;52.514;13.458;2022-11-12T07:45:56;10.93;;;4.87;;
69769;SDS011;57282;52.514;13.458;2022-11-12T07:48:24;12.43;;;4.65;;
69769;SDS011;57282;52.514;13.458;2022-11-12T07:50:50;12.65;;;4.47;;
69769;SDS011;57282;52.514;13.458;2022-11-12T07:53:19;11.55;;;4.93;;
69769;SDS011;57282;52.514;13.458;2022-11-12T07:55:51;12.07;;;5.22;;
69769;SDS011;57282;52.514;13.458;2022-11-12T07:58:19;11.47;;;5.00;;
69769;SDS011;57282;52.514;13.458;2022-11-12T08:00:46;12.93;;;6.00;;
69769;SDS011;57282;52.514;13.458;2022-11-12T08:03:12;13.60;;;5.25;;
69769;SDS011;57282;52.514;13.458;2022-11-12T08:05:39;21.67;;;5.10;;
69769;SDS011;57282;52.514;13.458;2022-11-12T08:08:06;16.83;;;5.43;;
69769;SDS011;57282;52.514;13.458;2022-11-12T08:10:34;16.30;;;6.10;;
69769;SDS011;57282;52.514;13.458;2022-11-12T08:13:00;13.82;;;5.95;;
69769;SDS011;57282;52.514;13.458;2022-11-12T08:15:27;16.75;;;5.50;;
69769;SDS011;57282;52.514;13.458;2022-11-12T08:17:54;9.88;;;5.20;;
69769;SDS011;57282;52.514;13.458;2022-11-12T08:20:21;16.10;;;6.22;;
69769;SDS011;57282;52.514;13.458;2022-11-12T08:22:48;10.50;;;5.40;;
69769;SDS011;57282;52.514;13.458;2022-11-12T08:25:14;15.93;;;6.30;;
69769;SDS011;57282;52.514;13.458;2022-11-12T08:27:44;13.38;;;4.75;;
69769;SDS011;57282;52.514;13.458;2022-11-12T08:30:11;15.38;;;5.68;;
69769;SDS011;57282;52.514;13.458;2022-11-12T08:32:39;15.93;;;6.43;;
69769;SDS011;57282;52.514;13.458;2022-11-12T08:35:06;19.87;;;6.70;;
69769;SDS011;57282;52.514;13.458;2022-11-12T08:37:33;18.00;;;6.57;;
69769;SDS011;57282;52.514;13.458;2022-11-12T08:39:59;16.67;;;5.97;;
69769;SDS011;57282;52.514;13.458;2022-11-12T08:42:26;13.50;;;5.78;;
69769;SDS011;57282;52.514;13.458;2022-11-12T08:44:54;15.32;;;5.30;;
69769;SDS011;57282;52.514;13.458;2022-11-12T08:47:21;15.50;;;5.57;;
69769;SDS011;57282;52.514;13.458;2022-11-12T08:49:47;19.85;;;6.63;;
69769;SDS011;57282;52.514;13.458;2022-11-12T08:52:14;12.52;;;5.20;;
69769;SDS011;57282;52.514;13.458;2022-11-12T08:54:41;15.13;;;6.05;;
69769;SDS011;57282;52.514;13.458;2022-11-12T08:57:08;17.80;;;6.93;;
69769;SDS011;57282;52.514;13.458;2022-11-12T08:59:35;15.43;;;7.83;;
69769;SDS011;57282;52.514;13.458;2022-11-12T09:02:03;22.42;;;10.20;;
69769;SDS011;57282;52.514;13.458;2022-11-12T09:04:32;16.48;;;7.57;;
69769;SDS011;57282;52.514;13.458;2022-11-12T09:06:59;13.15;;;7.32;;
69769;SDS011;57282;52.514;13.458;2022-11-12T09:09:25;14.50;;;6.90;;
69769;SDS011;57282;52.514;13.458;2022-11-12T09:11:52;13.50;;;5.77;;
69769;SDS011;57282;52.514;13.458;2022-11-12T09:14:19;13.43;;;5.30;;
69769;SDS011;57282;52.514;13.458;2022-11-12T09:16:46;15.25;;;5.82;;
69769;SDS011;57282;52.514;13.458;2022-11-12T09:19:14;14.48;;;5.28;;
69769;SDS011;57282;52.514;13.458;2022-11-12T09:21:40;13.82;;;5.72;;
69769;SDS011;57282;52.514;13.458;2022-11-12T09:24:07;14.17;;;5.80;;
69769;SDS011;57282;52.514;13.458;2022-11-12T09:26:34;17.73;;;6.07;;
69769;SDS011;57282;52.514;13.458;2022-11-12T09:29:00;19.00;;;7.00;;
69769;SDS011;57282;52.514;13.458;2022-11-12T09:31:27;12.75;;;6.28;;
69769;SDS011;57282;52.514;13.458;2022-11-12T09:33:54;17.60;;;6.80;;
69769;SDS011;57282;52.514;13.458;2022-11-12T09:36:22;19.40;;;8.43;;
69769;SDS011;57282;52.514;13.458;2022-11-12T09:38:48;20.73;;;7.43;;
69769;SDS011;57282;52.514;13.458;2022-11-12T09:41:17;15.00;;;6.80;;
69769;SDS011;57282;52.514;13.458;2022-11-12T09:43:52;12.77;;;6.05;;
69769;SDS011;57282;52.514;13.458;2022-11-12T09:46:34;11.93;;;6.00;;
69769;SDS011;57282;52.514;13.458;2022-11-12T09:49:11;15.07;;;6.47;;
69769;SDS011;57282;52.514;13.458;2022-11-12T09:51:45;17.00;;;5.85;;
69769;SDS011;57282;52.514;13.458;2022-11-12T09:54:20;18.17;;;6.45;;
69769;SDS011;57282;52.514;13.458;2022-11-12T09:56:50;14.35;;;6.50;;
69769;SDS011;57282;52.514;13.458;2022-11-12T09:59:19;17.60;;;6.30;;
69769;SDS011;57282;52.514;13.458;2022-11-12T10:01:55;16.77;;;7.53;;
69769;SDS011;57282;52.514;13.458;2022-11-12T10:04:36;21.40;;;7.53;;
69769;SDS011;57282;52.514;13.458;2022-11-12T10:07:22;19.55;;;7.07;;
69769;SDS011;57282;52.514;13.458;2022-11-12T10:10:04;21.13;;;7.75;;
69769;SDS011;57282;52.514;13.458;2022-11-12T10:12:53;15.80;;;6.57;;
69769;SDS011;57282;52.514;13.458;2022-11-12T10:15:41;20.47;;;7.97;;
69769;SDS011;57282;52.514;13.458;2022-11-12T10:18:49;15.32;;;8.00;;
69769;SDS011;57282;52.514;13.458;2022-11-12T10:21:40;18.92;;;7.80;;
69769;SDS011;57282;52.514;13.458;2022-11-12T10:24:19;15.00;;;6.97;;
69769;SDS011;57282;52.514;13.458;2022-11-12T10:26:48;15.05;;;6.70;;
69769;SDS011;57282;52.514;13.458;2022-11-12T10:29:18;15.10;;;6.77;;
69769;SDS011;57282;52.514;13.458;2022-11-12T10:31:55;21.85;;;7.32;;
69769;SDS011;57282;52.514;13.458;2022-11-12T10:34:22;19.13;;;7.53;;
69769;SDS011;57282;52.514;13.458;2022-11-12T10:36:50;19.00;;;8.57;;
69769;SDS011;57282;52.514;13.458;2022-11-12T10:39:33;18.05;;;8.48;;
69769;SDS011;57282;52.514;13.458;2022-11-12T10:42:03;17.00;;;7.87;;
69769;SDS011;57282;52.514;13.458;2022-11-12T10:44:34;15.00;;;7.32;;
69769;SDS011;57282;52.514;13.458;2022-11-12T10:47:18;18.42;;;7.00;;
69769;SDS011;57282;52.514;13.458;2022-11-12T10:50:01;18.80;;;6.95;;
69769;SDS011;57282;52.514;13.458;2022-11-12T10:52:51;16.27;;;6.82;;
69769;SDS011;57282;52.514;13.458;2022-11-12T10:55:22;12.67;;;5.57;;
69769;SDS011;57282;52.514;13.458;2022-11-12T11:00:55;16.70;;;6.22;;
69769;SDS011;57282;52.514;13.458;2022-11-12T11:03:26;12.98;;;4.63;;
69769;SDS011;57282;52.514;13.458;2022-11-12T11:05:57;14.15;;;6.50;;
69769;SDS011;57282;52.514;13.458;2022-11-12T11:08:31;19.10;;;8.37;;
69769;SDS011;57282;52.514;13.458;2022-11-12T11:11:13;9.88;;;4.63;;
69769;SDS011;57282;52.514;13.458;2022-11-12T11:13:46;14.32;;;4.65;;
69769;SDS011;57282;52.514;13.458;2022-11-12T11:16:14;14.98;;;4.75;;
69769;SDS011;57282;52.514;13.458;2022-11-12T11:18:45;14.38;;;4.72;;
69769;SDS011;57282;52.514;13.458;2022-11-12T11:21:20;10.90;;;4.37;;
69769;SDS011;57282;52.514;13.458;2022-11-12T11:24:06;15.23;;;4.35;;
69769;SDS011;57282;52.514;13.458;2022-11-12T11:26:55;14.50;;;4.30;;
69769;SDS011;57282;52.514;13.458;2022-11-12T11:29:33;15.00;;;4.85;;
69769;SDS011;57282;52.514;13.458;2022-11-12T11:32:27;13.00;;;4.68;;
69769;SDS011;57282;52.514;13.458;2022-11-12T11:35:13;14.07;;;4.20;;
69769;SDS011;57282;52.514;13.458;2022-11-12T11:37:54;16.30;;;5.70;;
69769;SDS011;57282;52.514;13.458;2022-11-12T11:40:42;15.02;;;5.85;;
69769;SDS011;57282;52.514;13.458;2022-11-12T11:46:27;10.80;;;4.07;;
69769;SDS011;57282;52.514;13.458;2022-11-12T11:49:18;16.37;;;4.57;;
69769;SDS011;57282;52.514;13.458;2022-11-12T11:52:13;9.88;;;4.05;;
69769;SDS011;57282;52.514;13.458;2022-11-12T11:55:13;13.05;;;4.45;;
69769;SDS011;57282;52.514;13.458;2022-11-12T11:57:55;9.57;;;3.28;;
69769;SDS011;57282;52.514;13.458;2022-11-12T12:00:41;12.10;;;3.50;;
69769;SDS011;57282;52.514;13.458;2022-11-12T12:03:19;11.13;;;4.10;;
69769;SDS011;57282;52.514;13.458;2022-11-12T12:05:58;11.23;;;4.97;;
69769;SDS011;57282;52.514;13.458;2022-11-12T12:08:44;12.50;;;4.30;;
69769;SDS011;57282;52.514;13.458;2022-11-12T12:11:29;10.13;;;3.90;;
69769;SDS011;57282;52.514;13.458;2022-11-12T12:14:05;11.88;;;3.97;;
69769;SDS011;57282;52.514;13.458;2022-11-12T12:16:54;9.60;;;4.00;;
69769;SDS011;57282;52.514;13.458;2022-11-12T12:19:40;11.65;;;4.38;;
69769;SDS011;57282;52.514;13.458;2022-11-12T12:22:23;12.00;;;3.40;;
69769;SDS011;57282;52.514;13.458;2022-11-12T12:25:06;14.20;;;4.28;;
69769;SDS011;57282;52.514;13.458;2022-11-12T12:27:54;10.70;;;4.88;;
69769;SDS011;57282;52.514;13.458;2022-11-12T12:30:30;12.90;;;4.07;;
69769;SDS011;57282;52.514;13.458;2022-11-12T12:33:08;10.20;;;3.83;;
69769;SDS011;57282;52.514;13.458;2022-11-12T12:35:50;10.18;;;4.25;;
69769;SDS011;57282;52.514;13.458;2022-11-12T12:38:23;12.48;;;4.45;;
69769;SDS011;57282;52.514;13.458;2022-11-12T12:40:58;12.35;;;4.28;;
69769;SDS011;57282;52.514;13.458;2022-11-12T12:43:37;15.20;;;4.87;;
69769;SDS011;57282;52.514;13.458;2022-11-12T12:46:11;9.85;;;4.25;;
69769;SDS011;57282;52.514;13.458;2022-11-12T12:48:43;15.30;;;5.97;;
69769;SDS011;57282;52.514;13.458;2022-11-12T12:51:12;14.00;;;4.53;;
69769;SDS011;57282;52.514;13.458;2022-11-12T12:53:39;13.35;;;4.93;;
69769;SDS011;57282;52.514;13.458;2022-11-12T12:56:06;18.30;;;6.37;;
69769;SDS011;57282;52.514;13.458;2022-11-12T12:59:18;16.52;;;6.00;;
69769;SDS011;57282;52.514;13.458;2022-11-12T13:01:53;11.88;;;4.72;;
69769;SDS011;57282;52.514;13.458;2022-11-12T13:04:48;14.40;;;6.85;;
69769;SDS011;57282;52.514;13.458;2022-11-12T13:07:19;18.00;;;6.68;;
69769;SDS011;57282;52.514;13.458;2022-11-12T13:13:32;14.35;;;5.85;;
69769;SDS011;57282;52.514;13.458;2022-11-12T13:16:01;12.40;;;5.07;;
69769;SDS011;57282;52.514;13.458;2022-11-12T13:21:26;36.40;;;16.42;;
69769;SDS011;57282;52.514;13.458;2022-11-12T13:23:55;29.63;;;12.83;;
69769;SDS011;57282;52.514;13.458;2022-11-12T13:26:48;14.25;;;6.68;;
69769;SDS011;57282;52.514;13.458;2022-11-12T13:32:32;14.57;;;5.90;;
69769;SDS011;57282;52.514;13.458;2022-11-12T13:35:28;25.38;;;11.40;;
69769;SDS011;57282;52.514;13.458;2022-11-12T13:37:59;18.17;;;8.17;;
69769;SDS011;57282;52.514;13.458;2022-11-12T13:40:42;15.95;;;6.10;;
69769;SDS011;57282;52.514;13.458;2022-11-12T13:46:05;30.77;;;14.18;;
69769;SDS011;57282;52.514;13.458;2022-11-12T13:48:52;18.63;;;8.55;;
69769;SDS011;57282;52.514;13.458;2022-11-12T13:51:27;16.77;;;7.87;;
69769;SDS011;57282;52.514;13.458;2022-11-12T13:57:15;21.20;;;10.40;;
69769;SDS011;57282;52.514;13.458;2022-11-12T14:00:07;15.75;;;6.72;;
69769;SDS011;57282;52.514;13.458;2022-11-12T14:02:49;17.55;;;6.95;;
69769;SDS011;57282;52.514;13.458;2022-11-12T14:05:24;14.60;;;6.37;;
69769;SDS011;57282;52.514;13.458;2022-11-12T14:08:00;15.38;;;6.70;;
69769;SDS011;57282;52.514;13.458;2022-11-12T14:10:47;21.05;;;7.20;;
69769;SDS011;57282;52.514;13.458;2022-11-12T14:13:47;19.88;;;7.80;;
69769;SDS011;57282;52.514;13.458;2022-11-12T14:16:43;25.55;;;8.30;;
69769;SDS011;57282;52.514;13.458;2022-11-12T14:19:51;24.23;;;8.50;;
69769;SDS011;57282;52.514;13.458;2022-11-12T14:22:39;22.25;;;7.53;;
69769;SDS011;57282;52.514;13.458;2022-11-12T14:25:10;23.40;;;7.35;;
69769;SDS011;57282;52.514;13.458;2022-11-12T14:27:43;28.48;;;11.48;;
69769;SDS011;57282;52.514;13.458;2022-11-12T14:30:12;23.13;;;11.05;;
69769;SDS011;57282;52.514;13.458;2022-11-12T14:32:50;17.43;;;7.40;;
69769;SDS011;57282;52.514;13.458;2022-11-12T14:38:10;17.17;;;7.03;;
69769;SDS011;57282;52.514;13.458;2022-11-12T14:40:44;18.55;;;6.78;;
69769;SDS011;57282;52.514;13.458;2022-11-12T14:43:28;19.13;;;9.32;;
69769;SDS011;57282;52.514;13.458;2022-11-12T14:46:00;22.67;;;9.57;;
69769;SDS011;57282;52.514;13.458;2022-11-12T14:48:31;18.13;;;7.72;;
69769;SDS011;57282;52.514;13.458;2022-11-12T14:51:14;15.98;;;6.70;;
69769;SDS011;57282;52.514;13.458;2022-11-12T14:53:42;15.88;;;6.43;;
69769;SDS011;57282;52.514;13.458;2022-11-12T14:56:21;18.83;;;8.00;;
69769;SDS011;57282;52.514;13.458;2022-11-12T14:58:56;18.30;;;6.67;;
69769;SDS011;57282;52.514;13.458;2022-11-12T15:01:25;18.33;;;6.53;;
69769;SDS011;57282;52.514;13.458;2022-11-12T15:04:02;12.82;;;6.32;;
69769;SDS011;57282;52.514;13.458;2022-11-12T15:06:49;16.17;;;6.85;;
69769;SDS011;57282;52.514;13.458;2022-11-12T15:09:30;23.58;;;11.80;;
69769;SDS011;57282;52.514;13.458;2022-11-12T15:11:59;25.37;;;12.97;;
69769;SDS011;57282;52.514;13.458;2022-11-12T15:14:28;28.63;;;15.07;;
69769;SDS011;57282;52.514;13.458;2022-11-12T15:16:57;20.83;;;10.98;;
69769;SDS011;57282;52.514;13.458;2022-11-12T15:19:25;31.60;;;13.10;;